logo



Minimumtemperatur heute 0.0     Maximumtemperatur heute 20.5
Datum Zeit
MEZ
Lufttemperatur
C
Windrichtung
Grad
Wind Mittel
Km/h
Wind Min
Km/h
Wind Max
Km/h
rel. Feuchte
%
2017-06-29 11:20:00 20.5 273 3.9 7.5 20.5 65
2017-06-29 11:15:00 20.5 262 4.0 9.7 18.6 66
2017-06-29 11:10:00 20.5 269 4.2 13.0 18.4 68
2017-06-29 11:05:00 20.3 259 4.8 12.0 22.9 68
2017-06-29 11:00:00 20.2 265 5.3 15.7 26.4 68
2017-06-29 10:55:00 20.3 260 5.1 14.8 23.8 67
2017-06-29 10:50:00 20.2 279 5.1 13.7 24.0 69
2017-06-29 10:45:00 20.0 276 5.7 17.9 23.1 70
2017-06-29 10:40:00 20.0 281 5.2 14.1 24.9 72
2017-06-29 10:35:00 20.0 253 4.5 9.6 22.2 71
2017-06-29 10:30:00 19.8 292 4.5 13.4 19.1 73
2017-06-29 10:25:00 19.6 271 3.9 11.9 19.6 72
2017-06-29 10:20:00 19.5 271 5.0 15.2 20.8 71
2017-06-29 10:15:00 19.5 269 5.3 14.5 23.0 72
2017-06-29 10:10:00 19.5 265 4.7 13.4 20.0 74
2017-06-29 10:05:00 19.1 277 5.2 16.2 21.7 73
2017-06-29 10:00:00 19.1 283 5.3 15.9 22.8 74
2017-06-29 09:55:00 0.0 276 5.5 16.6 23.0 0
2017-06-29 09:50:00 0.0 271 5.2 14.8 22.7 0
2017-06-29 09:45:00 0.0 274 4.6 13.7 19.2 0
2017-06-29 09:40:00 0.0 0 0.0 0.0 0.0 0
2017-06-29 09:35:00 0.0 293 2.3 1.2 19.4 0
2017-06-29 09:30:00 0.0 286 0.9 0.4 6.2 0
2017-06-29 09:25:00 0.0 228 0.7 0.0 6.6 0
2017-06-29 09:20:00 0.0 233 0.7 0.0 6.1 0
2017-06-29 09:15:00 0.0 210 0.7 0.3 4.7 0
2017-06-29 09:10:00 0.0 327 0.3 0.0 3.4 0
2017-06-29 09:05:00 17.6 294 0.7 1.0 5.4 83
2017-06-29 09:00:00 17.5 275 1.0 2.1 5.0 83
2017-06-29 08:55:00 17.4 284 1.2 2.6 6.0 84
2017-06-29 08:50:00 17.3 295 1.0 2.5 5.0 84
2017-06-29 08:45:00 17.2 325 1.3 2.3 6.9 84
2017-06-29 08:40:00 17.0 276 0.9 1.6 5.0 84
2017-06-29 08:35:00 17.1 307 0.8 0.6 5.5 83
2017-06-29 08:30:00 17.1 286 0.6 0.4 4.2 84
2017-06-29 08:25:00 17.1 303 0.5 0.4 3.6 84
2017-06-29 08:20:00 16.9 270 0.8 1.4 4.8 84
2017-06-29 08:15:00 16.7 294 1.6 2.1 9.4 86
2017-06-29 08:10:00 16.6 283 1.3 2.7 6.5 85
2017-06-29 08:05:00 16.9 310 1.0 0.3 5.8 85
2017-06-29 08:00:00 17.0 346 0.3 0.0 4.6 84
2017-06-29 07:55:00 16.5 325 0.8 0.0 6.3 86
2017-06-29 07:50:00 16.3 331 1.5 2.9 7.5 89
2017-06-29 07:45:00 16.1 326 0.9 0.2 5.6 88
2017-06-29 07:40:00 16.0 95 1.2 0.8 7.4 88
2017-06-29 07:35:00 16.0 128 1.2 2.1 6.7 89
2017-06-29 07:30:00 16.0 186 1.3 2.5 6.5 91
2017-06-29 07:25:00 15.8 123 0.5 0.2 3.4 91
2017-06-29 07:20:00 15.5 30 0.4 0.4 3.0 93
2017-06-29 07:15:00 15.0 119 0.8 2.1 3.6 93
2017-06-29 07:10:00 15.0 123 0.5 0.6 2.8 93
2017-06-29 07:05:00 14.8 52 0.6 0.6 4.1 93
2017-06-29 07:00:00 14.7 32 0.2 0.0 2.8 93
2017-06-29 06:55:00 14.6 109 0.5 0.6 4.9 93
2017-06-29 06:50:00 14.6 105 1.5 3.0 7.6 93
2017-06-29 06:45:00 14.6 172 1.2 2.0 6.4 92
2017-06-29 06:40:00 14.6 147 1.7 2.7 8.8 92
2017-06-29 06:35:00 14.7 151 1.8 1.9 9.2 92
2017-06-29 06:30:00 14.7 108 2.0 2.5 11.1 92
2017-06-29 06:25:00 14.9 91 1.6 3.3 10.2 91
2017-06-29 06:20:00 15.1 130 1.2 1.5 6.3 90
2017-06-29 06:15:00 15.4 225 0.8 0.1 8.2 90
2017-06-29 06:10:00 15.5 268 2.0 2.1 12.7 89
2017-06-29 06:05:00 15.8 266 3.0 6.4 14.5 90
2017-06-29 06:00:00 15.7 301 3.4 9.3 16.9 92
2017-06-29 05:55:00 15.6 270 2.5 5.0 13.4 93
2017-06-29 05:50:00 15.5 251 2.6 6.1 12.3 95
2017-06-29 05:45:00 15.1 236 1.7 3.1 9.1 95
2017-06-29 05:40:00 14.9 215 0.9 1.5 6.9 95
2017-06-29 05:35:00 14.8 140 1.5 3.9 6.4 95
2017-06-29 05:30:00 14.8 144 1.0 1.1 5.9 95
2017-06-29 05:25:00 14.8 101 0.2 0.1 3.1 95
2017-06-29 05:20:00 14.7 37 0.4 0.3 3.6 95
2017-06-29 05:15:00 14.6 105 1.3 1.4 8.1 95
2017-06-29 05:10:00 14.6 135 0.8 0.0 7.0 95
2017-06-29 05:05:00 14.7 204 0.4 0.4 2.4 95
2017-06-29 05:00:00 14.6 105 0.1 0.0 1.5 95
2017-06-29 04:55:00 14.6 51 0.5 0.4 5.4 95
2017-06-29 04:50:00 14.5 110 0.4 0.5 2.9 95
2017-06-29 04:45:00 14.4 105 0.9 0.2 6.3 95
2017-06-29 04:40:00 14.5 119 1.5 3.0 7.1 95
2017-06-29 04:35:00 14.5 129 0.4 0.3 3.1 95
2017-06-29 04:30:00 14.5 44 0.5 0.4 2.9 95
2017-06-29 04:25:00 14.5 359 0.2 0.0 2.8 95
2017-06-29 04:20:00 14.3 136 0.7 1.3 4.0 95
2017-06-29 04:15:00 14.4 149 0.9 1.0 5.4 95
2017-06-29 04:10:00 14.4 133 0.7 1.0 3.5 95
2017-06-29 04:05:00 14.5 132 0.9 1.9 4.8 95
2017-06-29 04:00:00 14.6 96 1.1 1.8 6.0 95
2017-06-29 03:55:00 14.6 90 1.1 1.6 6.5 95
2017-06-29 03:50:00 14.6 116 1.0 0.2 6.8 95
2017-06-29 03:45:00 14.6 78 0.4 0.2 3.1 95
2017-06-29 03:40:00 14.7 21 0.7 0.6 4.4 95
2017-06-29 03:35:00 14.6 75 0.6 0.2 4.1 95
2017-06-29 03:30:00 14.6 136 1.4 3.7 6.6 95
2017-06-29 03:25:00 14.7 141 0.5 1.3 3.6 95
2017-06-29 03:20:00 14.8 111 0.4 0.6 2.1 95
2017-06-29 03:15:00 14.8 37 0.4 0.4 2.7 95
2017-06-29 03:10:00 14.8 44 0.7 1.7 3.3 95
2017-06-29 03:05:00 14.8 50 0.6 1.6 3.0 95
2017-06-29 03:00:00 14.8 48 0.2 0.2 1.8 95
2017-06-29 02:55:00 14.8 34 0.4 0.6 2.8 95
2017-06-29 02:50:00 14.8 127 0.2 0.0 2.1 95
2017-06-29 02:45:00 14.7 134 0.5 0.8 3.5 94
2017-06-29 02:40:00 14.8 152 0.9 1.5 4.8 94
2017-06-29 02:35:00 14.8 127 0.8 0.8 5.0 94
2017-06-29 02:30:00 14.8 150 0.8 1.7 4.7 94
2017-06-29 02:25:00 14.9 116 0.9 1.8 5.3 94
2017-06-29 02:20:00 15.0 127 0.3 0.1 2.7 94
2017-06-29 02:15:00 15.0 121 0.8 1.2 3.9 94
2017-06-29 02:10:00 15.0 121 0.8 1.2 4.0 94
2017-06-29 02:05:00 15.1 127 1.2 3.2 5.6 93
2017-06-29 02:00:00 15.2 140 1.5 3.4 7.4 93
2017-06-29 01:55:00 15.4 125 0.9 0.6 7.1 92
2017-06-29 01:50:00 15.9 123 0.9 0.6 6.7 92
2017-06-29 01:45:00 15.9 302 1.2 3.3 5.7 92
2017-06-29 01:40:00 15.8 305 1.4 3.2 7.9 93
2017-06-29 01:35:00 15.6 322 1.5 2.6 8.6 94
2017-06-29 01:30:00 15.5 347 0.8 1.9 3.6 94
2017-06-29 01:25:00 15.5 355 0.7 1.5 4.3 94
2017-06-29 01:20:00 15.5 34 0.2 0.1 1.4 94
2017-06-29 01:15:00 15.5 123 0.4 0.8 2.3 94
2017-06-29 01:10:00 15.6 138 0.7 0.6 4.3 94
2017-06-29 01:05:00 15.5 140 0.5 0.2 4.7 94
2017-06-29 01:00:00 15.6 69 0.3 0.2 2.8 94
2017-06-29 00:55:00 15.6 117 0.6 1.0 3.3 94
2017-06-29 00:50:00 15.7 154 0.4 0.6 2.2 94
2017-06-29 00:45:00 15.7 167 0.6 0.7 4.5 94
2017-06-29 00:40:00 15.7 114 0.4 0.8 3.4 94
2017-06-29 00:35:00 15.7 120 0.7 1.6 3.8 94
2017-06-29 00:30:00 15.8 152 0.3 0.0 2.6 94
2017-06-29 00:25:00 15.8 117 0.7 1.0 4.7 94
2017-06-29 00:20:00 15.8 119 0.6 0.6 4.1 94
2017-06-29 00:15:00 15.9 143 0.8 0.0 6.8 94
2017-06-29 00:10:00 16.0 107 0.6 0.0 4.6 94
2017-06-29 00:05:00 16.0 125 0.3 0.0 2.9 94
2017-06-29 00:00:00 16.0 145 0.5 0.0 5.4 94
www.zamg.ac.at

klagenfurt@zamg.ac.at